To NAV CANADA Home Page Login to a new session Search on AWWS site Disclaimer Vers la page française équivalente Tips FAQ What's new on the site To the Forecasts and Observations / NOTAM section To "File a Flight Plan" website Publications and other links Update of the User's profile FIC Telephone Numbers My Weather Data Folder Route Weather Data Regional Weather Data Local Weather Data To the Forecasts and Observations / NOTAM section
Request Generated 10/19/2018 at 15:28:06 UTC . Weather information available at that time is displayed.

METAR/TAF

REVELSTOKE/BC    (show WxCam)

METAR CYRV 191500Z AUTO VRB02KT 9SM OVC008 04/04 A3042 RMK SLP319=
METAR CYRV 191400Z AUTO 00000KT 8SM OVC008 03/03 A3041 RMK SLP315=
METAR CYRV 191300Z AUTO 00000KT 9SM OVC008 04/04 A3039 RMK SLP308=

CYRV - No TAF is issued for this station

Your time UTC time
Weather data provided by Environment Canada and NAV CANADA